sensor_id;sensor_type;location;lat;lon;timestamp;P1;durP1;ratioP1;P2;durP2;ratioP2
62153;SDS011;48140;45.486;9.226;2023-02-15T00:01:18;48.90;;;21.27;;
62153;SDS011;48140;45.486;9.226;2023-02-15T00:03:44;41.90;;;20.40;;
62153;SDS011;48140;45.486;9.226;2023-02-15T00:06:12;50.22;;;20.70;;
62153;SDS011;48140;45.486;9.226;2023-02-15T00:08:37;45.75;;;21.13;;
62153;SDS011;48140;45.486;9.226;2023-02-15T00:11:13;49.65;;;20.48;;
62153;SDS011;48140;45.486;9.226;2023-02-15T00:13:41;46.15;;;21.40;;
62153;SDS011;48140;45.486;9.226;2023-02-15T00:16:08;46.85;;;20.17;;
62153;SDS011;48140;45.486;9.226;2023-02-15T00:18:36;40.90;;;19.90;;
62153;SDS011;48140;45.486;9.226;2023-02-15T00:21:04;44.60;;;21.10;;
62153;SDS011;48140;45.486;9.226;2023-02-15T00:23:31;47.30;;;20.85;;
62153;SDS011;48140;45.486;9.226;2023-02-15T00:26:04;51.67;;;20.42;;
62153;SDS011;48140;45.486;9.226;2023-02-15T00:28:30;57.50;;;21.92;;
62153;SDS011;48140;45.486;9.226;2023-02-15T00:31:09;46.40;;;20.45;;
62153;SDS011;48140;45.486;9.226;2023-02-15T00:33:36;42.65;;;21.60;;
62153;SDS011;48140;45.486;9.226;2023-02-15T00:36:03;45.15;;;20.60;;
62153;SDS011;48140;45.486;9.226;2023-02-15T00:38:30;47.42;;;21.17;;
62153;SDS011;48140;45.486;9.226;2023-02-15T00:40:57;41.95;;;20.60;;
62153;SDS011;48140;45.486;9.226;2023-02-15T00:43:24;45.35;;;21.40;;
62153;SDS011;48140;45.486;9.226;2023-02-15T00:45:51;43.97;;;19.95;;
62153;SDS011;48140;45.486;9.226;2023-02-15T00:48:17;43.25;;;19.65;;
62153;SDS011;48140;45.486;9.226;2023-02-15T00:50:50;40.85;;;19.52;;
62153;SDS011;48140;45.486;9.226;2023-02-15T00:53:18;44.88;;;19.65;;
62153;SDS011;48140;45.486;9.226;2023-02-15T00:55:44;44.95;;;20.75;;
62153;SDS011;48140;45.486;9.226;2023-02-15T00:58:10;41.08;;;19.80;;
62153;SDS011;48140;45.486;9.226;2023-02-15T01:00:36;49.22;;;19.73;;
62153;SDS011;48140;45.486;9.226;2023-02-15T01:03:03;45.70;;;21.52;;
62153;SDS011;48140;45.486;9.226;2023-02-15T01:05:29;42.85;;;19.90;;
62153;SDS011;48140;45.486;9.226;2023-02-15T01:07:56;42.78;;;20.30;;
62153;SDS011;48140;45.486;9.226;2023-02-15T01:10:22;41.65;;;19.25;;
62153;SDS011;48140;45.486;9.226;2023-02-15T01:12:48;35.80;;;17.85;;
62153;SDS011;48140;45.486;9.226;2023-02-15T01:15:15;48.30;;;19.65;;
62153;SDS011;48140;45.486;9.226;2023-02-15T01:17:41;42.03;;;20.50;;
62153;SDS011;48140;45.486;9.226;2023-02-15T01:20:07;44.78;;;19.58;;
62153;SDS011;48140;45.486;9.226;2023-02-15T01:22:33;48.08;;;19.60;;
62153;SDS011;48140;45.486;9.226;2023-02-15T01:24:58;47.17;;;19.90;;
62153;SDS011;48140;45.486;9.226;2023-02-15T01:27:24;45.35;;;21.48;;
62153;SDS011;48140;45.486;9.226;2023-02-15T01:29:51;42.97;;;19.35;;
62153;SDS011;48140;45.486;9.226;2023-02-15T01:32:16;47.60;;;20.13;;
62153;SDS011;48140;45.486;9.226;2023-02-15T01:34:42;48.72;;;20.77;;
62153;SDS011;48140;45.486;9.226;2023-02-15T01:37:07;45.97;;;21.60;;
62153;SDS011;48140;45.486;9.226;2023-02-15T01:39:33;42.10;;;19.83;;
62153;SDS011;48140;45.486;9.226;2023-02-15T01:41:59;40.50;;;20.52;;
62153;SDS011;48140;45.486;9.226;2023-02-15T01:52:39;48.67;;;22.02;;
62153;SDS011;48140;45.486;9.226;2023-02-15T01:55:09;46.20;;;21.20;;
62153;SDS011;48140;45.486;9.226;2023-02-15T01:57:35;52.20;;;22.27;;
62153;SDS011;48140;45.486;9.226;2023-02-15T02:00:02;50.75;;;21.05;;
62153;SDS011;48140;45.486;9.226;2023-02-15T02:02:29;43.45;;;20.58;;
62153;SDS011;48140;45.486;9.226;2023-02-15T02:04:59;43.45;;;20.80;;
62153;SDS011;48140;45.486;9.226;2023-02-15T02:07:32;46.50;;;21.02;;
62153;SDS011;48140;45.486;9.226;2023-02-15T02:10:02;48.28;;;19.05;;
62153;SDS011;48140;45.486;9.226;2023-02-15T02:12:28;39.53;;;20.00;;
62153;SDS011;48140;45.486;9.226;2023-02-15T02:14:54;41.88;;;19.67;;
62153;SDS011;48140;45.486;9.226;2023-02-15T02:23:11;45.88;;;18.67;;
62153;SDS011;48140;45.486;9.226;2023-02-15T02:32:21;35.83;;;17.58;;
62153;SDS011;48140;45.486;9.226;2023-02-15T02:34:54;40.83;;;19.15;;
62153;SDS011;48140;45.486;9.226;2023-02-15T02:40:25;35.60;;;18.65;;
62153;SDS011;48140;45.486;9.226;2023-02-15T02:43:18;43.42;;;19.25;;
62153;SDS011;48140;45.486;9.226;2023-02-15T02:46:07;39.83;;;18.95;;
62153;SDS011;48140;45.486;9.226;2023-02-15T02:48:54;45.67;;;19.05;;
62153;SDS011;48140;45.486;9.226;2023-02-15T02:51:20;40.63;;;17.70;;
62153;SDS011;48140;45.486;9.226;2023-02-15T02:53:51;35.75;;;18.65;;
62153;SDS011;48140;45.486;9.226;2023-02-15T02:56:29;37.50;;;18.08;;
62153;SDS011;48140;45.486;9.226;2023-02-15T02:59:03;47.70;;;18.77;;
62153;SDS011;48140;45.486;9.226;2023-02-15T03:04:17;36.65;;;17.45;;
62153;SDS011;48140;45.486;9.226;2023-02-15T03:07:00;40.20;;;18.63;;
62153;SDS011;48140;45.486;9.226;2023-02-15T03:09:30;39.08;;;17.00;;
62153;SDS011;48140;45.486;9.226;2023-02-15T03:12:06;43.38;;;19.27;;
62153;SDS011;48140;45.486;9.226;2023-02-15T03:14:44;44.05;;;19.00;;
62153;SDS011;48140;45.486;9.226;2023-02-15T03:17:16;38.30;;;19.17;;
62153;SDS011;48140;45.486;9.226;2023-02-15T03:19:44;42.65;;;18.85;;
62153;SDS011;48140;45.486;9.226;2023-02-15T03:22:13;40.58;;;18.15;;
62153;SDS011;48140;45.486;9.226;2023-02-15T03:24:49;37.92;;;17.80;;
62153;SDS011;48140;45.486;9.226;2023-02-15T03:27:23;42.22;;;17.67;;
62153;SDS011;48140;45.486;9.226;2023-02-15T03:29:52;35.55;;;17.75;;
62153;SDS011;48140;45.486;9.226;2023-02-15T03:32:20;44.60;;;18.58;;
62153;SDS011;48140;45.486;9.226;2023-02-15T03:34:48;38.78;;;18.77;;
62153;SDS011;48140;45.486;9.226;2023-02-15T03:40:04;34.95;;;16.63;;
62153;SDS011;48140;45.486;9.226;2023-02-15T03:42:54;34.13;;;17.45;;
62153;SDS011;48140;45.486;9.226;2023-02-15T03:45:27;34.63;;;16.67;;
62153;SDS011;48140;45.486;9.226;2023-02-15T03:47:56;38.83;;;16.08;;
62153;SDS011;48140;45.486;9.226;2023-02-15T03:50:26;36.85;;;15.38;;
62153;SDS011;48140;45.486;9.226;2023-02-15T03:53:14;43.63;;;17.30;;
62153;SDS011;48140;45.486;9.226;2023-02-15T03:55:45;38.75;;;16.80;;
62153;SDS011;48140;45.486;9.226;2023-02-15T03:58:12;35.60;;;16.25;;
62153;SDS011;48140;45.486;9.226;2023-02-15T04:00:58;30.88;;;15.60;;
62153;SDS011;48140;45.486;9.226;2023-02-15T04:03:45;31.58;;;16.73;;
62153;SDS011;48140;45.486;9.226;2023-02-15T04:06:19;33.05;;;17.20;;
62153;SDS011;48140;45.486;9.226;2023-02-15T04:08:45;32.67;;;15.98;;
62153;SDS011;48140;45.486;9.226;2023-02-15T04:11:29;35.88;;;15.90;;
62153;SDS011;48140;45.486;9.226;2023-02-15T04:13:55;34.92;;;16.90;;
62153;SDS011;48140;45.486;9.226;2023-02-15T04:16:24;35.50;;;16.27;;
62153;SDS011;48140;45.486;9.226;2023-02-15T04:18:50;31.58;;;16.27;;
62153;SDS011;48140;45.486;9.226;2023-02-15T04:21:35;38.03;;;16.70;;
62153;SDS011;48140;45.486;9.226;2023-02-15T04:24:19;30.58;;;15.23;;
62153;SDS011;48140;45.486;9.226;2023-02-15T04:27:04;36.10;;;16.58;;
62153;SDS011;48140;45.486;9.226;2023-02-15T04:29:31;35.03;;;17.20;;
62153;SDS011;48140;45.486;9.226;2023-02-15T04:31:57;35.47;;;16.50;;
62153;SDS011;48140;45.486;9.226;2023-02-15T04:34:25;33.95;;;15.77;;
62153;SDS011;48140;45.486;9.226;2023-02-15T04:36:52;33.85;;;16.73;;
62153;SDS011;48140;45.486;9.226;2023-02-15T04:39:18;35.58;;;16.33;;
62153;SDS011;48140;45.486;9.226;2023-02-15T04:41:44;40.38;;;18.15;;
62153;SDS011;48140;45.486;9.226;2023-02-15T04:44:10;33.25;;;16.42;;
62153;SDS011;48140;45.486;9.226;2023-02-15T04:46:36;35.85;;;16.08;;
62153;SDS011;48140;45.486;9.226;2023-02-15T04:49:02;39.10;;;17.63;;
62153;SDS011;48140;45.486;9.226;2023-02-15T04:51:28;31.35;;;15.68;;
62153;SDS011;48140;45.486;9.226;2023-02-15T04:53:54;33.30;;;15.43;;
62153;SDS011;48140;45.486;9.226;2023-02-15T04:56:19;29.40;;;15.13;;
62153;SDS011;48140;45.486;9.226;2023-02-15T04:58:45;30.67;;;15.30;;
62153;SDS011;48140;45.486;9.226;2023-02-15T05:01:11;31.27;;;15.77;;
62153;SDS011;48140;45.486;9.226;2023-02-15T05:03:37;33.72;;;15.95;;
62153;SDS011;48140;45.486;9.226;2023-02-15T05:06:03;35.78;;;16.15;;
62153;SDS011;48140;45.486;9.226;2023-02-15T05:08:29;32.53;;;16.40;;
62153;SDS011;48140;45.486;9.226;2023-02-15T05:10:55;33.88;;;15.10;;
62153;SDS011;48140;45.486;9.226;2023-02-15T05:13:21;29.20;;;15.35;;
62153;SDS011;48140;45.486;9.226;2023-02-15T05:15:50;34.08;;;15.70;;
62153;SDS011;48140;45.486;9.226;2023-02-15T05:18:17;35.97;;;15.43;;
62153;SDS011;48140;45.486;9.226;2023-02-15T05:20:43;32.50;;;15.95;;
62153;SDS011;48140;45.486;9.226;2023-02-15T05:23:09;35.28;;;16.77;;
62153;SDS011;48140;45.486;9.226;2023-02-15T05:25:35;29.48;;;15.60;;
62153;SDS011;48140;45.486;9.226;2023-02-15T05:28:19;38.17;;;15.93;;
62153;SDS011;48140;45.486;9.226;2023-02-15T05:30:46;34.85;;;16.75;;
62153;SDS011;48140;45.486;9.226;2023-02-15T05:33:13;38.63;;;16.45;;
62153;SDS011;48140;45.486;9.226;2023-02-15T05:35:38;37.35;;;16.83;;
62153;SDS011;48140;45.486;9.226;2023-02-15T05:38:04;32.60;;;16.52;;
62153;SDS011;48140;45.486;9.226;2023-02-15T05:40:30;33.60;;;15.50;;
62153;SDS011;48140;45.486;9.226;2023-02-15T05:42:55;36.60;;;15.27;;
62153;SDS011;48140;45.486;9.226;2023-02-15T05:45:22;34.47;;;16.90;;
62153;SDS011;48140;45.486;9.226;2023-02-15T05:47:48;32.22;;;15.60;;
62153;SDS011;48140;45.486;9.226;2023-02-15T05:50:13;33.65;;;15.18;;
62153;SDS011;48140;45.486;9.226;2023-02-15T05:52:39;34.25;;;14.88;;
62153;SDS011;48140;45.486;9.226;2023-02-15T05:55:05;33.97;;;15.98;;
62153;SDS011;48140;45.486;9.226;2023-02-15T05:57:30;35.15;;;15.02;;
62153;SDS011;48140;45.486;9.226;2023-02-15T05:59:56;34.00;;;16.92;;
62153;SDS011;48140;45.486;9.226;2023-02-15T06:02:22;34.05;;;17.15;;
62153;SDS011;48140;45.486;9.226;2023-02-15T06:04:47;33.60;;;15.32;;
62153;SDS011;48140;45.486;9.226;2023-02-15T06:07:13;32.65;;;15.70;;
62153;SDS011;48140;45.486;9.226;2023-02-15T06:09:39;34.72;;;16.42;;
62153;SDS011;48140;45.486;9.226;2023-02-15T06:12:04;34.45;;;14.88;;
62153;SDS011;48140;45.486;9.226;2023-02-15T06:14:30;34.97;;;16.40;;
62153;SDS011;48140;45.486;9.226;2023-02-15T06:16:56;32.05;;;15.50;;
62153;SDS011;48140;45.486;9.226;2023-02-15T06:19:21;33.60;;;16.30;;
62153;SDS011;48140;45.486;9.226;2023-02-15T06:21:47;29.58;;;14.88;;
62153;SDS011;48140;45.486;9.226;2023-02-15T06:24:13;34.75;;;16.95;;
62153;SDS011;48140;45.486;9.226;2023-02-15T06:26:39;36.25;;;15.90;;
62153;SDS011;48140;45.486;9.226;2023-02-15T06:29:05;34.75;;;15.75;;
62153;SDS011;48140;45.486;9.226;2023-02-15T06:31:31;35.53;;;15.75;;
62153;SDS011;48140;45.486;9.226;2023-02-15T06:33:57;29.73;;;15.45;;
62153;SDS011;48140;45.486;9.226;2023-02-15T06:36:26;25.95;;;14.40;;
62153;SDS011;48140;45.486;9.226;2023-02-15T06:38:53;34.85;;;15.82;;
62153;SDS011;48140;45.486;9.226;2023-02-15T06:41:19;32.47;;;14.90;;
62153;SDS011;48140;45.486;9.226;2023-02-15T06:43:45;26.48;;;14.38;;
62153;SDS011;48140;45.486;9.226;2023-02-15T06:46:10;31.13;;;14.88;;
62153;SDS011;48140;45.486;9.226;2023-02-15T06:48:36;30.65;;;14.82;;
62153;SDS011;48140;45.486;9.226;2023-02-15T06:51:01;37.78;;;16.88;;
62153;SDS011;48140;45.486;9.226;2023-02-15T06:53:27;26.17;;;13.65;;
62153;SDS011;48140;45.486;9.226;2023-02-15T06:55:59;31.88;;;14.35;;
62153;SDS011;48140;45.486;9.226;2023-02-15T06:58:27;28.52;;;14.52;;
62153;SDS011;48140;45.486;9.226;2023-02-15T07:00:53;29.05;;;15.50;;
62153;SDS011;48140;45.486;9.226;2023-02-15T07:03:19;29.58;;;14.40;;
62153;SDS011;48140;45.486;9.226;2023-02-15T07:05:44;36.60;;;15.27;;
62153;SDS011;48140;45.486;9.226;2023-02-15T07:08:12;30.92;;;14.50;;
62153;SDS011;48140;45.486;9.226;2023-02-15T07:10:37;30.45;;;15.30;;
62153;SDS011;48140;45.486;9.226;2023-02-15T07:13:03;31.90;;;14.40;;
62153;SDS011;48140;45.486;9.226;2023-02-15T07:15:29;30.80;;;14.98;;
62153;SDS011;48140;45.486;9.226;2023-02-15T07:17:56;34.58;;;16.52;;
62153;SDS011;48140;45.486;9.226;2023-02-15T07:20:23;30.05;;;14.98;;
62153;SDS011;48140;45.486;9.226;2023-02-15T07:22:49;31.58;;;15.98;;
62153;SDS011;48140;45.486;9.226;2023-02-15T07:25:15;30.23;;;15.82;;
62153;SDS011;48140;45.486;9.226;2023-02-15T07:27:41;32.03;;;16.02;;
62153;SDS011;48140;45.486;9.226;2023-02-15T07:30:10;30.30;;;16.00;;
62153;SDS011;48140;45.486;9.226;2023-02-15T07:32:37;32.33;;;15.32;;
62153;SDS011;48140;45.486;9.226;2023-02-15T07:35:22;31.23;;;15.23;;
62153;SDS011;48140;45.486;9.226;2023-02-15T07:37:48;34.20;;;15.65;;
62153;SDS011;48140;45.486;9.226;2023-02-15T07:40:14;28.60;;;15.55;;
62153;SDS011;48140;45.486;9.226;2023-02-15T07:42:39;34.28;;;14.48;;
62153;SDS011;48140;45.486;9.226;2023-02-15T07:45:05;29.05;;;14.95;;
62153;SDS011;48140;45.486;9.226;2023-02-15T07:47:31;35.38;;;16.85;;
62153;SDS011;48140;45.486;9.226;2023-02-15T07:49:56;31.50;;;15.73;;
62153;SDS011;48140;45.486;9.226;2023-02-15T07:52:22;43.85;;;16.52;;
62153;SDS011;48140;45.486;9.226;2023-02-15T07:54:48;25.85;;;13.40;;
62153;SDS011;48140;45.486;9.226;2023-02-15T07:57:13;33.97;;;16.05;;
62153;SDS011;48140;45.486;9.226;2023-02-15T07:59:39;32.85;;;16.42;;
62153;SDS011;48140;45.486;9.226;2023-02-15T08:02:08;27.73;;;15.70;;
62153;SDS011;48140;45.486;9.226;2023-02-15T08:04:35;35.58;;;16.45;;
62153;SDS011;48140;45.486;9.226;2023-02-15T08:07:00;30.77;;;15.25;;
62153;SDS011;48140;45.486;9.226;2023-02-15T08:09:26;31.67;;;16.05;;
62153;SDS011;48140;45.486;9.226;2023-02-15T08:11:51;31.38;;;14.45;;
62153;SDS011;48140;45.486;9.226;2023-02-15T08:14:18;35.80;;;16.23;;
62153;SDS011;48140;45.486;9.226;2023-02-15T08:19:18;33.55;;;15.23;;
62153;SDS011;48140;45.486;9.226;2023-02-15T08:21:50;39.70;;;17.83;;
62153;SDS011;48140;45.486;9.226;2023-02-15T08:24:22;37.90;;;16.50;;
62153;SDS011;48140;45.486;9.226;2023-02-15T08:26:49;30.90;;;16.52;;
62153;SDS011;48140;45.486;9.226;2023-02-15T08:29:17;30.98;;;16.05;;
62153;SDS011;48140;45.486;9.226;2023-02-15T08:31:44;36.13;;;16.33;;
62153;SDS011;48140;45.486;9.226;2023-02-15T08:34:11;33.15;;;17.00;;
62153;SDS011;48140;45.486;9.226;2023-02-15T08:36:40;30.88;;;15.18;;
62153;SDS011;48140;45.486;9.226;2023-02-15T08:39:06;35.15;;;16.65;;
62153;SDS011;48140;45.486;9.226;2023-02-15T08:41:33;36.35;;;16.17;;
62153;SDS011;48140;45.486;9.226;2023-02-15T08:44:01;34.03;;;16.42;;
62153;SDS011;48140;45.486;9.226;2023-02-15T08:46:30;30.70;;;16.75;;
62153;SDS011;48140;45.486;9.226;2023-02-15T08:48:58;40.08;;;17.70;;
62153;SDS011;48140;45.486;9.226;2023-02-15T08:51:25;29.27;;;16.00;;
62153;SDS011;48140;45.486;9.226;2023-02-15T08:53:53;31.58;;;16.52;;
62153;SDS011;48140;45.486;9.226;2023-02-15T08:56:22;32.30;;;16.67;;
62153;SDS011;48140;45.486;9.226;2023-02-15T08:58:52;34.00;;;18.45;;
62153;SDS011;48140;45.486;9.226;2023-02-15T09:01:19;34.78;;;17.50;;
62153;SDS011;48140;45.486;9.226;2023-02-15T09:03:47;34.05;;;19.25;;
62153;SDS011;48140;45.486;9.226;2023-02-15T09:06:15;35.88;;;18.52;;
62153;SDS011;48140;45.486;9.226;2023-02-15T09:08:42;37.83;;;18.92;;
62153;SDS011;48140;45.486;9.226;2023-02-15T09:11:08;36.78;;;18.35;;
62153;SDS011;48140;45.486;9.226;2023-02-15T09:13:36;40.40;;;19.25;;
62153;SDS011;48140;45.486;9.226;2023-02-15T09:16:03;38.65;;;19.83;;
62153;SDS011;48140;45.486;9.226;2023-02-15T09:18:31;42.97;;;19.95;;
62153;SDS011;48140;45.486;9.226;2023-02-15T09:21:14;45.78;;;21.08;;
62153;SDS011;48140;45.486;9.226;2023-02-15T09:23:41;37.78;;;18.98;;
62153;SDS011;48140;45.486;9.226;2023-02-15T09:26:12;41.40;;;20.55;;
62153;SDS011;48140;45.486;9.226;2023-02-15T09:28:42;39.78;;;19.95;;
62153;SDS011;48140;45.486;9.226;2023-02-15T09:31:14;36.28;;;19.50;;
62153;SDS011;48140;45.486;9.226;2023-02-15T09:33:44;40.78;;;18.73;;
62153;SDS011;48140;45.486;9.226;2023-02-15T09:38:44;36.35;;;19.45;;
62153;SDS011;48140;45.486;9.226;2023-02-15T09:49:27;35.03;;;17.95;;
62153;SDS011;48140;45.486;9.226;2023-02-15T09:52:02;32.50;;;16.88;;
62153;SDS011;48140;45.486;9.226;2023-02-15T09:55:05;33.70;;;16.80;;
62153;SDS011;48140;45.486;9.226;2023-02-15T10:05:55;31.60;;;17.17;;
62153;SDS011;48140;45.486;9.226;2023-02-15T10:11:13;35.30;;;16.77;;
62153;SDS011;48140;45.486;9.226;2023-02-15T10:17:03;33.35;;;17.33;;
62153;SDS011;48140;45.486;9.226;2023-02-15T10:25:19;32.30;;;16.50;;
62153;SDS011;48140;45.486;9.226;2023-02-15T10:27:49;37.60;;;17.00;;
62153;SDS011;48140;45.486;9.226;2023-02-15T10:30:15;39.15;;;17.65;;
62153;SDS011;48140;45.486;9.226;2023-02-15T10:32:55;36.40;;;17.40;;
62153;SDS011;48140;45.486;9.226;2023-02-15T10:46:33;41.38;;;20.02;;
62153;SDS011;48140;45.486;9.226;2023-02-15T11:00:41;49.25;;;23.92;;
62153;SDS011;48140;45.486;9.226;2023-02-15T11:06:12;51.45;;;24.85;;
62153;SDS011;48140;45.486;9.226;2023-02-15T11:08:45;46.17;;;24.95;;
62153;SDS011;48140;45.486;9.226;2023-02-15T11:11:15;50.33;;;24.52;;
62153;SDS011;48140;45.486;9.226;2023-02-15T11:13:59;46.60;;;23.83;;
62153;SDS011;48140;45.486;9.226;2023-02-15T11:16:46;46.55;;;24.33;;
62153;SDS011;48140;45.486;9.226;2023-02-15T11:21:57;49.28;;;25.00;;
62153;SDS011;48140;45.486;9.226;2023-02-15T11:24:26;47.47;;;25.05;;
62153;SDS011;48140;45.486;9.226;2023-02-15T11:26:56;44.78;;;25.63;;
62153;SDS011;48140;45.486;9.226;2023-02-15T11:29:29;49.22;;;26.80;;
62153;SDS011;48140;45.486;9.226;2023-02-15T11:31:58;45.63;;;25.02;;
62153;SDS011;48140;45.486;9.226;2023-02-15T11:35:32;56.53;;;25.00;;
62153;SDS011;48140;45.486;9.226;2023-02-15T11:40:15;45.17;;;25.67;;
62153;SDS011;48140;45.486;9.226;2023-02-15T11:42:57;47.60;;;26.13;;
62153;SDS011;48140;45.486;9.226;2023-02-15T11:45:31;54.80;;;27.83;;
62153;SDS011;48140;45.486;9.226;2023-02-15T11:48:00;59.90;;;30.92;;
62153;SDS011;48140;45.486;9.226;2023-02-15T11:50:31;53.75;;;29.00;;
62153;SDS011;48140;45.486;9.226;2023-02-15T11:53:01;52.85;;;27.30;;
62153;SDS011;48140;45.486;9.226;2023-02-15T11:55:34;51.42;;;28.13;;
62153;SDS011;48140;45.486;9.226;2023-02-15T12:00:42;51.97;;;28.02;;
62153;SDS011;48140;45.486;9.226;2023-02-15T12:05:47;51.38;;;28.10;;
62153;SDS011;48140;45.486;9.226;2023-02-15T12:08:23;49.80;;;27.52;;
62153;SDS011;48140;45.486;9.226;2023-02-15T12:13:37;51.40;;;27.25;;
62153;SDS011;48140;45.486;9.226;2023-02-15T12:16:32;55.40;;;28.30;;
62153;SDS011;48140;45.486;9.226;2023-02-15T12:21:54;53.03;;;27.80;;
62153;SDS011;48140;45.486;9.226;2023-02-15T12:24:34;51.90;;;27.70;;
62153;SDS011;48140;45.486;9.226;2023-02-15T12:29:40;59.63;;;27.60;;
62153;SDS011;48140;45.486;9.226;2023-02-15T12:32:19;53.60;;;27.48;;
62153;SDS011;48140;45.486;9.226;2023-02-15T12:34:56;53.22;;;26.75;;
62153;SDS011;48140;45.486;9.226;2023-02-15T12:37:34;60.08;;;26.60;;
62153;SDS011;48140;45.486;9.226;2023-02-15T12:40:02;55.65;;;27.25;;
62153;SDS011;48140;45.486;9.226;2023-02-15T12:42:44;55.92;;;27.98;;
62153;SDS011;48140;45.486;9.226;2023-02-15T12:45:20;57.70;;;27.30;;
62153;SDS011;48140;45.486;9.226;2023-02-15T12:48:07;56.35;;;27.15;;
62153;SDS011;48140;45.486;9.226;2023-02-15T12:50:44;47.42;;;25.23;;
62153;SDS011;48140;45.486;9.226;2023-02-15T12:53:18;51.97;;;27.23;;
62153;SDS011;48140;45.486;9.226;2023-02-15T12:55:58;58.95;;;27.98;;
62153;SDS011;48140;45.486;9.226;2023-02-15T13:06:23;56.15;;;28.15;;
62153;SDS011;48140;45.486;9.226;2023-02-15T13:08:50;60.33;;;29.20;;
62153;SDS011;48140;45.486;9.226;2023-02-15T13:11:28;59.00;;;29.05;;
62153;SDS011;48140;45.486;9.226;2023-02-15T13:16:57;59.53;;;27.05;;
62153;SDS011;48140;45.486;9.226;2023-02-15T13:21:56;56.33;;;27.42;;
62153;SDS011;48140;45.486;9.226;2023-02-15T13:24:27;57.78;;;28.73;;
62153;SDS011;48140;45.486;9.226;2023-02-15T13:26:58;52.90;;;27.25;;
62153;SDS011;48140;45.486;9.226;2023-02-15T13:29:36;52.10;;;27.48;;
62153;SDS011;48140;45.486;9.226;2023-02-15T13:32:10;55.58;;;27.73;;
62153;SDS011;48140;45.486;9.226;2023-02-15T13:34:41;54.58;;;28.00;;
62153;SDS011;48140;45.486;9.226;2023-02-15T13:39:54;53.75;;;26.98;;
62153;SDS011;48140;45.486;9.226;2023-02-15T13:42:34;54.47;;;26.70;;
62153;SDS011;48140;45.486;9.226;2023-02-15T13:50:52;53.05;;;25.58;;
62153;SDS011;48140;45.486;9.226;2023-02-15T14:01:28;53.17;;;26.25;;
62153;SDS011;48140;45.486;9.226;2023-02-15T14:04:35;54.30;;;25.98;;
62153;SDS011;48140;45.486;9.226;2023-02-15T14:07:24;53.95;;;26.88;;
62153;SDS011;48140;45.486;9.226;2023-02-15T14:12:57;53.70;;;25.65;;
62153;SDS011;48140;45.486;9.226;2023-02-15T14:15:41;51.40;;;24.70;;
62153;SDS011;48140;45.486;9.226;2023-02-15T14:23:56;55.72;;;25.30;;
62153;SDS011;48140;45.486;9.226;2023-02-15T14:29:00;48.53;;;24.23;;
62153;SDS011;48140;45.486;9.226;2023-02-15T14:31:40;58.58;;;26.65;;
62153;SDS011;48140;45.486;9.226;2023-02-15T14:34:20;47.20;;;25.27;;
62153;SDS011;48140;45.486;9.226;2023-02-15T14:36:56;52.53;;;24.65;;
62153;SDS011;48140;45.486;9.226;2023-02-15T14:45:31;46.42;;;23.08;;
62153;SDS011;48140;45.486;9.226;2023-02-15T14:48:28;43.92;;;22.65;;
62153;SDS011;48140;45.486;9.226;2023-02-15T14:50:56;47.88;;;24.38;;
62153;SDS011;48140;45.486;9.226;2023-02-15T14:53:24;50.13;;;23.83;;
62153;SDS011;48140;45.486;9.226;2023-02-15T14:58:56;49.85;;;24.70;;
62153;SDS011;48140;45.486;9.226;2023-02-15T15:01:24;48.53;;;23.27;;
62153;SDS011;48140;45.486;9.226;2023-02-15T15:03:53;50.33;;;23.80;;
62153;SDS011;48140;45.486;9.226;2023-02-15T15:09:40;49.95;;;22.58;;
62153;SDS011;48140;45.486;9.226;2023-02-15T15:11:53;48.33;;;23.63;;
62153;SDS011;48140;45.486;9.226;2023-02-15T15:14:38;55.10;;;23.27;;
62153;SDS011;48140;45.486;9.226;2023-02-15T15:17:05;46.58;;;22.02;;
62153;SDS011;48140;45.486;9.226;2023-02-15T15:22:24;44.17;;;20.23;;
62153;SDS011;48140;45.486;9.226;2023-02-15T15:24:52;46.03;;;22.20;;
62153;SDS011;48140;45.486;9.226;2023-02-15T15:32:38;48.10;;;21.75;;
62153;SDS011;48140;45.486;9.226;2023-02-15T15:40:42;52.65;;;21.58;;
62153;SDS011;48140;45.486;9.226;2023-02-15T15:43:35;44.35;;;20.85;;
62153;SDS011;48140;45.486;9.226;2023-02-15T15:49:09;45.47;;;21.85;;
62153;SDS011;48140;45.486;9.226;2023-02-15T15:51:40;48.75;;;21.80;;
62153;SDS011;48140;45.486;9.226;2023-02-15T15:54:23;44.67;;;20.67;;
62153;SDS011;48140;45.486;9.226;2023-02-15T15:59:27;47.95;;;21.98;;
62153;SDS011;48140;45.486;9.226;2023-02-15T16:01:56;43.63;;;20.15;;
62153;SDS011;48140;45.486;9.226;2023-02-15T16:04:30;64.88;;;26.15;;
62153;SDS011;48140;45.486;9.226;2023-02-15T16:06:57;65.22;;;24.42;;
62153;SDS011;48140;45.486;9.226;2023-02-15T16:09:38;58.47;;;25.85;;
62153;SDS011;48140;45.486;9.226;2023-02-15T16:12:04;63.33;;;26.38;;
62153;SDS011;48140;45.486;9.226;2023-02-15T16:14:39;56.33;;;25.27;;
62153;SDS011;48140;45.486;9.226;2023-02-15T16:17:12;53.30;;;24.40;;
62153;SDS011;48140;45.486;9.226;2023-02-15T16:19:42;64.75;;;26.85;;
62153;SDS011;48140;45.486;9.226;2023-02-15T16:22:13;59.10;;;26.83;;
62153;SDS011;48140;45.486;9.226;2023-02-15T16:27:40;63.42;;;25.40;;
62153;SDS011;48140;45.486;9.226;2023-02-15T16:30:27;59.10;;;25.48;;
62153;SDS011;48140;45.486;9.226;2023-02-15T16:33:06;55.17;;;24.50;;
62153;SDS011;48140;45.486;9.226;2023-02-15T16:35:34;61.22;;;25.38;;
62153;SDS011;48140;45.486;9.226;2023-02-15T16:38:01;61.75;;;26.08;;
62153;SDS011;48140;45.486;9.226;2023-02-15T16:40:41;58.08;;;24.88;;
62153;SDS011;48140;45.486;9.226;2023-02-15T16:43:16;66.90;;;25.40;;
62153;SDS011;48140;45.486;9.226;2023-02-15T16:45:46;65.22;;;24.35;;
62153;SDS011;48140;45.486;9.226;2023-02-15T16:48:14;56.22;;;23.88;;
62153;SDS011;48140;45.486;9.226;2023-02-15T16:50:46;58.00;;;24.20;;
62153;SDS011;48140;45.486;9.226;2023-02-15T16:53:20;62.75;;;25.45;;
62153;SDS011;48140;45.486;9.226;2023-02-15T16:55:54;61.75;;;23.40;;
62153;SDS011;48140;45.486;9.226;2023-02-15T16:58:29;62.42;;;24.08;;
62153;SDS011;48140;45.486;9.226;2023-02-15T17:01:01;55.33;;;22.60;;
62153;SDS011;48140;45.486;9.226;2023-02-15T17:03:30;56.63;;;23.35;;
62153;SDS011;48140;45.486;9.226;2023-02-15T17:05:57;57.72;;;23.27;;
62153;SDS011;48140;45.486;9.226;2023-02-15T17:08:26;62.05;;;23.63;;
62153;SDS011;48140;45.486;9.226;2023-02-15T17:19:24;58.22;;;22.75;;
62153;SDS011;48140;45.486;9.226;2023-02-15T17:21:53;52.88;;;20.52;;
62153;SDS011;48140;45.486;9.226;2023-02-15T17:26:56;53.13;;;21.65;;
62153;SDS011;48140;45.486;9.226;2023-02-15T17:29:39;59.17;;;21.65;;
62153;SDS011;48140;45.486;9.226;2023-02-15T17:34:50;40.08;;;17.60;;
62153;SDS011;48140;45.486;9.226;2023-02-15T17:37:23;45.25;;;17.40;;
62153;SDS011;48140;45.486;9.226;2023-02-15T17:39:52;46.17;;;17.85;;
62153;SDS011;48140;45.486;9.226;2023-02-15T17:42:18;47.00;;;19.05;;
62153;SDS011;48140;45.486;9.226;2023-02-15T17:44:43;48.75;;;17.40;;
62153;SDS011;48140;45.486;9.226;2023-02-15T17:47:12;44.17;;;17.45;;
62153;SDS011;48140;45.486;9.226;2023-02-15T17:49:42;42.20;;;16.33;;
62153;SDS011;48140;45.486;9.226;2023-02-15T17:52:11;42.42;;;16.10;;
62153;SDS011;48140;45.486;9.226;2023-02-15T17:54:40;41.35;;;15.82;;
62153;SDS011;48140;45.486;9.226;2023-02-15T17:57:25;40.17;;;15.70;;